Moroni, Utah
Current Conditions -  °F | °C
As of 5:37 AM on Thursday 18 Dec 2014 (Local Time) from KPUC Reporting Station
Moderate Fog Moderate Fog  
Wind Chill: 26°   Ceiling: 1100
Heat Index: 26°   Visibility: 0.25mi
Dew Point: 24°   Wind: 0mph
Humidity: 92%   Direction: NA
Pressure: 30.06"   Gusts: NA
Location:  39.52°N, 111.59°W
Report Text: KPUC 181237Z AUTO 00000KT 1/4SM FZFG VV011 M03/M04 A3006 RMK AO2 T10331044
Loading
Personal Weather Stations






























Interactive Weather Map New forecast layout! Learn more

10-Day Weather Forecast

Advertisements
Track Severe Weather on mobile